Time;durP1;ratioP1;P1;durP2;ratioP2;P2;SDS_P1;SDS_P2;PMS_P1;PMS_P2;Temp;Humidity;BMP_temperature;BMP_pressure;BME280_temperature;BME280_humidity;BME280_pressure;Samples;Min_cycle;Max_cycle;Signal;HPM_P1;HPM_P2
2023/05/20 00:00:58;;;;;;;17.37;6.63;;;11.40;99.90;;;;;;5005885;28;20203;-55
2023/05/20 00:03:24;;;;;;;11.07;6.33;;;11.40;99.90;;;;;;5005164;28;20311;-55
2023/05/20 00:05:49;;;;;;;13.20;6.57;;;11.40;99.90;;;;;;5004899;28;20288;-57
2023/05/20 00:08:17;;;;;;;14.43;6.47;;;11.40;99.90;;;;;;5004847;28;20164;-56
2023/05/20 00:10:42;;;;;;;12.27;6.37;;;11.40;99.90;;;;;;5002080;28;20180;-54
2023/05/20 00:13:08;;;;;;;13.10;6.80;;;11.40;99.90;;;;;;5004014;28;20448;-55
2023/05/20 00:15:34;;;;;;;8.20;6.03;;;11.40;99.90;;;;;;5004902;28;20183;-56
2023/05/20 00:18:01;;;;;;;10.50;5.37;;;11.40;99.90;;;;;;5003300;28;20227;-56
2023/05/20 00:20:27;;;;;;;9.97;5.33;;;11.40;99.90;;;;;;5000493;28;20498;-55
2023/05/20 00:22:53;;;;;;;9.70;6.37;;;11.40;99.90;;;;;;5005791;28;20573;-54
2023/05/20 00:25:18;;;;;;;7.40;6.00;;;11.40;99.90;;;;;;5003533;28;20485;-55
2023/05/20 00:27:45;;;;;;;11.40;6.17;;;11.40;99.90;;;;;;4999670;28;20177;-56
2023/05/20 00:30:11;;;;;;;8.80;5.57;;;11.30;99.90;;;;;;5002794;28;20192;-56
2023/05/20 00:32:36;;;;;;;9.70;5.90;;;11.40;99.90;;;;;;5006892;28;20443;-57
2023/05/20 00:35:03;;;;;;;10.23;5.83;;;11.30;99.90;;;;;;5002959;28;20553;-55
2023/05/20 00:37:28;;;;;;;12.93;6.00;;;11.30;99.90;;;;;;5001179;28;20181;-55
2023/05/20 00:39:54;;;;;;;10.13;6.33;;;11.30;99.90;;;;;;5003571;28;20431;-55
2023/05/20 00:42:25;;;;;;;12.57;5.90;;;11.30;99.90;;;;;;5004175;28;20188;-56
2023/05/20 00:44:51;;;;;;;9.40;6.40;;;11.30;99.90;;;;;;5003500;28;20203;-56
2023/05/20 00:47:18;;;;;;;10.03;5.80;;;11.30;99.90;;;;;;5002397;28;20423;-57
2023/05/20 00:49:49;;;;;;;9.30;6.13;;;11.30;99.90;;;;;;5005644;28;20489;-57
2023/05/20 00:52:17;;;;;;;9.73;6.17;;;11.30;99.90;;;;;;5003521;28;20581;-55
2023/05/20 00:54:43;;;;;;;11.33;5.97;;;11.30;99.90;;;;;;5003108;28;20435;-57
2023/05/20 00:57:10;;;;;;;8.00;5.47;;;11.30;99.90;;;;;;4999849;28;20795;-55
2023/05/20 00:59:36;;;;;;;8.60;5.80;;;11.30;99.90;;;;;;5006152;28;20423;-57
2023/05/20 01:02:03;;;;;;;10.00;5.90;;;11.30;99.90;;;;;;4996357;28;20947;-55
2023/05/20 01:04:30;;;;;;;13.20;5.70;;;11.30;99.90;;;;;;5003718;28;20471;-57
2023/05/20 01:06:56;;;;;;;7.40;5.23;;;11.30;99.90;;;;;;5000969;28;20435;-55
2023/05/20 01:09:23;;;;;;;11.57;5.67;;;11.30;99.90;;;;;;5003364;28;20721;-56
2023/05/20 01:11:58;;;;;;;10.60;5.30;;;11.30;99.90;;;;;;5004968;28;20489;-56
2023/05/20 01:14:28;;;;;;;11.47;5.43;;;11.30;99.90;;;;;;5006050;28;20451;-56
2023/05/20 01:16:57;;;;;;;6.47;5.50;;;11.30;99.90;;;;;;4996869;28;20489;-57
2023/05/20 01:19:37;;;;;;;12.00;5.63;;;11.30;99.90;;;;;;5003862;28;20431;-56
2023/05/20 01:22:06;;;;;;;7.80;6.10;;;11.30;99.90;;;;;;4997068;28;20429;-55
2023/05/20 01:24:32;;;;;;;7.60;5.90;;;11.30;99.90;;;;;;4998685;28;20554;-55
2023/05/20 01:26:58;;;;;;;8.40;5.17;;;11.30;99.90;;;;;;5003012;28;20581;-56
2023/05/20 01:29:25;;;;;;;6.10;5.17;;;11.30;99.90;;;;;;5000948;28;20199;-55
2023/05/20 01:31:53;;;;;;;13.83;5.60;;;11.30;99.90;;;;;;5005704;28;20435;-55
2023/05/20 01:34:19;;;;;;;6.87;5.00;;;11.30;99.90;;;;;;4998089;28;20451;-54
2023/05/20 01:36:45;;;;;;;10.50;5.00;;;11.30;99.90;;;;;;4995741;28;20451;-54
2023/05/20 01:39:12;;;;;;;9.83;5.70;;;11.30;99.90;;;;;;5005153;28;20176;-54
2023/05/20 01:41:39;;;;;;;7.93;5.00;;;11.30;99.90;;;;;;5033942;22;20984;-61
2023/05/20 01:44:05;;;;;;;6.20;4.97;;;11.30;99.90;;;;;;5004477;28;20462;-61
2023/05/20 01:46:33;;;;;;;11.80;4.90;;;11.30;99.90;;;;;;5001750;28;20518;-61
2023/05/20 01:48:58;;;;;;;7.20;4.20;;;11.30;99.90;;;;;;5005808;28;20188;-61
2023/05/20 01:51:24;;;;;;;7.90;5.43;;;11.30;99.90;;;;;;4998585;28;20959;-61
2023/05/20 01:53:50;;;;;;;7.27;4.50;;;11.30;99.90;;;;;;5000799;28;20672;-60
2023/05/20 01:56:15;;;;;;;5.50;4.60;;;11.30;99.90;;;;;;5004127;28;20315;-61
2023/05/20 01:58:41;;;;;;;7.00;4.90;;;11.40;99.90;;;;;;5003880;28;20553;-61
2023/05/20 02:01:07;;;;;;;7.73;4.93;;;11.40;99.90;;;;;;5004297;28;20200;-59
2023/05/20 02:03:33;;;;;;;5.97;4.70;;;11.40;99.90;;;;;;5005208;28;20723;-61
2023/05/20 02:05:58;;;;;;;5.40;4.90;;;11.40;99.90;;;;;;5005587;28;20474;-61
2023/05/20 02:08:24;;;;;;;5.60;5.00;;;11.40;99.90;;;;;;5003160;28;20172;-60
2023/05/20 02:10:50;;;;;;;10.50;5.40;;;11.50;99.90;;;;;;4996857;28;20203;-61
2023/05/20 02:13:15;;;;;;;7.30;5.30;;;11.50;99.90;;;;;;5003059;28;20172;-61
2023/05/20 02:15:41;;;;;;;6.10;4.93;;;11.50;99.90;;;;;;5001869;28;20184;-61
2023/05/20 02:18:07;;;;;;;5.63;4.50;;;11.40;99.90;;;;;;4999406;28;20192;-60
2023/05/20 02:20:35;;;;;;;7.13;5.67;;;11.50;99.90;;;;;;5004049;28;20435;-61
2023/05/20 02:23:01;;;;;;;5.53;4.87;;;11.50;99.90;;;;;;5005115;28;20189;-60
2023/05/20 02:25:27;;;;;;;12.30;5.87;;;11.50;99.90;;;;;;4999531;28;20554;-61
2023/05/20 02:27:53;;;;;;;6.40;5.10;;;11.60;99.90;;;;;;5002501;28;20522;-61
2023/05/20 02:30:18;;;;;;;7.17;4.93;;;11.50;99.90;;;;;;5005991;28;20179;-60
2023/05/20 02:32:44;;;;;;;7.77;5.47;;;11.60;99.90;;;;;;5005101;28;20203;-61
2023/05/20 02:35:10;;;;;;;7.20;4.97;;;11.60;99.90;;;;;;4997437;28;20181;-61
2023/05/20 02:37:37;;;;;;;6.63;4.83;;;11.60;99.90;;;;;;5003964;28;20607;-61
2023/05/20 02:40:03;;;;;;;7.40;5.47;;;11.60;99.90;;;;;;5009592;28;20184;-61
2023/05/20 02:42:29;;;;;;;5.87;4.90;;;11.70;99.90;;;;;;5007357;28;20509;-60
2023/05/20 02:44:57;;;;;;;9.60;5.40;;;11.60;99.90;;;;;;5009737;28;20471;-60
2023/05/20 02:47:23;;;;;;;7.90;4.93;;;11.70;99.90;;;;;;5004296;28;20211;-61
2023/05/20 02:49:49;;;;;;;7.33;5.40;;;11.70;99.90;;;;;;5009894;28;20442;-61
2023/05/20 02:52:15;;;;;;;9.00;5.57;;;11.70;99.90;;;;;;5003957;28;20464;-61
2023/05/20 02:54:40;;;;;;;8.23;5.07;;;11.70;99.90;;;;;;5009551;28;20187;-61
2023/05/20 02:57:06;;;;;;;5.53;4.53;;;11.70;99.90;;;;;;5003308;28;20189;-61
2023/05/20 02:59:31;;;;;;;5.60;4.60;;;11.70;99.90;;;;;;5006346;28;20255;-61
2023/05/20 03:01:57;;;;;;;11.20;5.07;;;11.70;99.90;;;;;;5002511;28;20192;-60
2023/05/20 03:04:24;;;;;;;7.00;5.40;;;11.70;99.90;;;;;;5008791;28;20787;-61
2023/05/20 03:06:50;;;;;;;9.30;5.20;;;11.70;99.90;;;;;;5008912;28;20642;-61
2023/05/20 03:09:18;;;;;;;4.77;4.33;;;11.70;99.90;;;;;;5005762;28;20446;-61
2023/05/20 03:11:44;;;;;;;9.47;4.87;;;11.70;99.90;;;;;;5004897;28;20460;-61
2023/05/20 03:14:09;;;;;;;8.10;5.03;;;11.70;99.90;;;;;;5008043;28;20443;-61
2023/05/20 03:16:35;;;;;;;6.03;5.20;;;11.70;99.90;;;;;;5007762;28;21014;-61
2023/05/20 03:19:01;;;;;;;10.47;5.57;;;11.70;99.90;;;;;;5005510;28;20192;-61
2023/05/20 03:21:27;;;;;;;5.70;4.70;;;11.70;99.90;;;;;;5008064;28;20200;-61
2023/05/20 03:23:52;;;;;;;8.77;5.33;;;11.70;99.90;;;;;;5010163;28;20200;-61
2023/05/20 03:26:18;;;;;;;8.03;5.43;;;11.70;99.90;;;;;;5009265;28;20173;-61
2023/05/20 03:28:44;;;;;;;5.70;5.00;;;11.70;99.90;;;;;;5007089;28;20200;-60
2023/05/20 03:31:09;;;;;;;6.50;5.00;;;11.70;99.90;;;;;;5006161;28;20196;-61
2023/05/20 03:33:35;;;;;;;6.17;5.50;;;11.80;99.90;;;;;;5008657;28;20177;-61
2023/05/20 03:36:00;;;;;;;11.10;6.17;;;11.70;99.90;;;;;;5003227;28;20656;-61
2023/05/20 03:38:26;;;;;;;9.60;5.90;;;11.80;99.90;;;;;;5008585;28;20770;-60
2023/05/20 03:40:52;;;;;;;6.93;5.63;;;11.70;99.90;;;;;;5007476;28;20204;-60
2023/05/20 03:43:17;;;;;;;7.10;5.67;;;11.70;99.90;;;;;;5000158;28;20334;-61
2023/05/20 03:45:43;;;;;;;9.70;6.40;;;11.80;99.90;;;;;;5005597;28;20685;-61
2023/05/20 03:48:08;;;;;;;10.33;6.30;;;11.80;99.90;;;;;;5005659;28;20295;-61
2023/05/20 03:50:34;;;;;;;13.63;5.87;;;11.80;99.90;;;;;;5007757;28;20169;-61
2023/05/20 03:53:00;;;;;;;8.27;6.30;;;11.80;99.90;;;;;;5006634;28;20240;-61
2023/05/20 03:55:26;;;;;;;13.37;6.90;;;11.80;99.90;;;;;;5005274;28;20645;-61
2023/05/20 03:57:52;;;;;;;7.67;6.10;;;11.80;99.90;;;;;;5007104;28;20598;-61
2023/05/20 04:00:17;;;;;;;6.63;5.40;;;11.80;99.90;;;;;;5009395;28;20458;-61
2023/05/20 04:02:43;;;;;;;9.17;6.30;;;11.80;99.90;;;;;;5007665;28;20687;-62
2023/05/20 04:05:09;;;;;;;9.70;6.70;;;11.80;99.90;;;;;;5007603;28;20204;-61
2023/05/20 04:07:35;;;;;;;7.33;6.60;;;11.80;99.90;;;;;;5003236;28;20213;-61
2023/05/20 04:10:01;;;;;;;10.30;6.60;;;11.80;99.90;;;;;;5004797;28;20235;-61
2023/05/20 04:12:29;;;;;;;9.00;6.57;;;11.80;99.90;;;;;;5004026;28;20502;-61
2023/05/20 04:15:04;;;;;;;7.20;5.47;;;11.90;99.90;;;;;;4999135;28;20473;-61
2023/05/20 04:17:30;;;;;;;9.60;6.87;;;11.90;99.90;;;;;;5019315;28;20437;-61
2023/05/20 04:19:58;;;;;;;12.13;6.90;;;11.80;99.90;;;;;;5004934;28;20935;-61
2023/05/20 04:22:24;;;;;;;9.53;7.40;;;11.80;99.90;;;;;;5000451;28;20722;-61
2023/05/20 04:24:50;;;;;;;11.90;6.70;;;11.80;99.90;;;;;;5005600;28;21184;-61
2023/05/20 04:27:15;;;;;;;8.83;6.77;;;11.80;99.90;;;;;;5006978;28;20431;-61
2023/05/20 04:29:44;;;;;;;10.10;7.17;;;11.90;99.90;;;;;;5004344;28;20227;-59
2023/05/20 04:32:12;;;;;;;8.87;6.53;;;11.80;99.90;;;;;;5004842;28;20202;-61
2023/05/20 04:34:37;;;;;;;9.30;6.80;;;11.80;99.90;;;;;;5004177;28;20450;-61
2023/05/20 04:37:03;;;;;;;9.20;6.50;;;11.90;99.90;;;;;;5005300;28;20435;-61
2023/05/20 04:39:29;;;;;;;9.27;7.50;;;11.90;99.90;;;;;;5001031;28;20208;-61
2023/05/20 04:41:54;;;;;;;11.80;6.73;;;11.90;99.90;;;;;;5004567;28;20287;-60
2023/05/20 04:44:21;;;;;;;12.13;7.40;;;11.90;99.90;;;;;;5001145;28;20204;-61
2023/05/20 04:46:47;;;;;;;14.00;7.87;;;11.90;99.90;;;;;;5002529;28;20234;-57
2023/05/20 04:49:14;;;;;;;10.70;7.80;;;12.00;99.90;;;;;;5010692;28;20419;-56
2023/05/20 04:51:40;;;;;;;12.90;8.17;;;12.00;99.90;;;;;;5003224;28;20451;-56
2023/05/20 04:54:06;;;;;;;9.63;7.93;;;12.00;99.90;;;;;;5009119;28;20427;-56
2023/05/20 04:56:32;;;;;;;11.43;8.07;;;12.00;99.90;;;;;;5002195;28;20454;-56
2023/05/20 04:58:58;;;;;;;13.63;8.50;;;12.00;99.90;;;;;;5004364;28;20650;-56
2023/05/20 05:01:23;;;;;;;9.67;8.00;;;12.10;99.90;;;;;;5006370;28;20452;-56
2023/05/20 05:03:49;;;;;;;12.40;8.57;;;12.10;99.90;;;;;;5005736;28;20220;-57
2023/05/20 05:06:15;;;;;;;12.47;8.87;;;12.10;99.90;;;;;;5003499;28;20681;-61
2023/05/20 05:08:40;;;;;;;11.23;8.40;;;12.20;99.90;;;;;;5002447;28;20200;-61
2023/05/20 05:11:06;;;;;;;14.07;9.40;;;12.20;99.90;;;;;;4999302;28;20980;-61
2023/05/20 05:13:31;;;;;;;13.67;9.33;;;12.20;99.90;;;;;;5002201;28;20181;-60
2023/05/20 05:16:00;;;;;;;16.67;9.73;;;12.30;99.90;;;;;;5003127;28;20177;-61
2023/05/20 05:18:26;;;;;;;12.43;9.17;;;12.30;99.90;;;;;;4995655;28;20180;-60
2023/05/20 05:20:59;;;;;;;15.40;9.20;;;12.30;99.90;;;;;;5003846;28;20501;-61
2023/05/20 05:23:25;;;;;;;14.37;10.83;;;12.30;99.90;;;;;;5004454;28;20188;-61
2023/05/20 05:25:51;;;;;;;17.77;11.20;;;12.40;99.90;;;;;;5007645;28;20473;-62
2023/05/20 05:28:17;;;;;;;17.23;11.83;;;12.30;99.90;;;;;;5002909;28;20181;-62
2023/05/20 05:30:43;;;;;;;16.40;10.43;;;12.40;99.90;;;;;;4998399;28;20545;-61
2023/05/20 05:33:08;;;;;;;15.20;10.63;;;12.40;99.90;;;;;;5001998;28;20226;-62
2023/05/20 05:35:34;;;;;;;16.17;10.97;;;12.40;99.90;;;;;;5004977;28;20177;-61
2023/05/20 05:37:59;;;;;;;16.37;10.97;;;12.40;99.90;;;;;;5002930;28;20208;-62
2023/05/20 05:40:26;;;;;;;18.50;11.57;;;12.40;99.90;;;;;;5005298;28;20184;-63
2023/05/20 05:42:51;;;;;;;14.40;11.00;;;12.40;99.90;;;;;;5002780;28;20184;-61
2023/05/20 05:45:17;;;;;;;19.07;11.70;;;12.40;99.90;;;;;;5006107;28;20478;-61
2023/05/20 05:47:43;;;;;;;16.47;10.87;;;12.40;99.90;;;;;;5007318;28;20267;-61
2023/05/20 05:50:09;;;;;;;23.13;11.80;;;12.40;99.90;;;;;;5005966;28;20175;-62
2023/05/20 05:52:35;;;;;;;14.70;11.30;;;12.40;99.90;;;;;;5000258;28;20540;-61
2023/05/20 05:55:01;;;;;;;16.40;11.60;;;12.40;99.90;;;;;;5004852;28;20435;-62
2023/05/20 05:57:27;;;;;;;16.93;11.20;;;12.50;99.90;;;;;;5003033;28;20188;-62
2023/05/20 05:59:52;;;;;;;15.83;11.00;;;12.50;99.90;;;;;;5006292;28;20518;-62
2023/05/20 06:02:18;;;;;;;17.00;11.23;;;12.50;99.90;;;;;;5005365;28;20692;-61
2023/05/20 06:04:44;;;;;;;14.80;9.80;;;12.50;99.90;;;;;;5003466;28;20200;-61
2023/05/20 06:07:10;;;;;;;15.50;10.83;;;12.50;99.90;;;;;;5004793;28;20183;-61
2023/05/20 06:09:35;;;;;;;21.70;11.67;;;12.50;99.90;;;;;;5005349;28;20424;-61
2023/05/20 06:12:01;;;;;;;14.70;10.93;;;12.50;99.90;;;;;;5004384;28;20220;-62
2023/05/20 06:14:27;;;;;;;19.43;11.50;;;12.50;99.90;;;;;;5004846;28;20707;-61
2023/05/20 06:16:52;;;;;;;16.60;11.87;;;12.60;99.90;;;;;;5010935;28;20180;-62
2023/05/20 06:19:18;;;;;;;15.47;10.53;;;12.60;99.90;;;;;;5002709;28;20180;-60
2023/05/20 06:21:44;;;;;;;13.87;11.30;;;12.60;99.90;;;;;;5009693;28;20200;-62
2023/05/20 06:24:09;;;;;;;15.30;10.73;;;12.60;99.90;;;;;;5005560;28;20207;-62
2023/05/20 06:26:35;;;;;;;14.63;11.40;;;12.60;99.90;;;;;;5009534;28;20180;-61
2023/05/20 06:29:02;;;;;;;13.47;9.90;;;12.60;99.90;;;;;;5009312;28;20169;-61
2023/05/20 06:31:28;;;;;;;19.30;10.67;;;12.60;99.90;;;;;;5009047;28;20200;-62
2023/05/20 06:33:54;;;;;;;14.97;10.57;;;12.60;99.90;;;;;;5006874;28;20466;-62
2023/05/20 06:36:20;;;;;;;21.67;11.77;;;12.60;99.90;;;;;;5007354;28;20435;-62
2023/05/20 06:38:46;;;;;;;17.20;11.60;;;12.60;99.90;;;;;;5008993;28;20211;-61
2023/05/20 06:41:11;;;;;;;16.00;11.37;;;12.50;99.90;;;;;;5005097;28;20239;-62
2023/05/20 06:43:37;;;;;;;18.87;12.13;;;12.50;99.90;;;;;;5006472;28;20553;-61
2023/05/20 06:46:03;;;;;;;19.13;12.67;;;12.50;99.90;;;;;;5007101;28;20164;-61
2023/05/20 06:48:29;;;;;;;15.43;11.53;;;12.50;99.90;;;;;;5007401;28;20168;-61
2023/05/20 06:50:55;;;;;;;18.17;12.47;;;12.50;99.90;;;;;;5004918;28;20860;-62
2023/05/20 06:53:21;;;;;;;16.80;11.90;;;12.50;99.90;;;;;;5005887;28;20212;-61
2023/05/20 06:55:47;;;;;;;18.23;12.63;;;12.60;99.90;;;;;;5009702;28;20461;-61
2023/05/20 06:58:12;;;;;;;20.37;12.73;;;12.60;99.90;;;;;;5010268;28;20638;-61
2023/05/20 07:00:38;;;;;;;18.30;13.00;;;12.60;99.90;;;;;;5001738;28;20201;-61
2023/05/20 07:03:04;;;;;;;20.50;13.40;;;12.70;99.90;;;;;;5004666;28;20654;-62
2023/05/20 07:05:30;;;;;;;17.00;12.70;;;12.70;99.90;;;;;;5007279;28;20231;-62
2023/05/20 07:07:56;;;;;;;29.73;13.90;;;12.70;99.90;;;;;;5007132;28;20180;-62
2023/05/20 07:10:21;;;;;;;21.90;13.17;;;12.70;99.90;;;;;;5009578;28;20423;-61
2023/05/20 07:12:47;;;;;;;21.03;12.90;;;12.80;99.90;;;;;;5009215;28;20184;-61
2023/05/20 07:15:13;;;;;;;20.47;12.47;;;12.80;99.90;;;;;;5008302;28;20180;-61
2023/05/20 07:17:39;;;;;;;17.90;12.43;;;12.80;99.90;;;;;;5004422;28;20211;-61
2023/05/20 07:20:05;;;;;;;21.10;14.70;;;12.80;99.90;;;;;;4996925;28;20176;-62
2023/05/20 07:22:30;;;;;;;18.63;12.47;;;12.80;99.90;;;;;;5003927;28;20455;-61
2023/05/20 07:24:56;;;;;;;21.03;11.70;;;12.80;99.90;;;;;;5006894;28;20470;-61
2023/05/20 07:27:22;;;;;;;18.57;12.00;;;12.80;99.90;;;;;;5007394;28;20181;-62
2023/05/20 07:29:47;;;;;;;16.73;10.93;;;12.90;99.90;;;;;;5001761;28;20214;-62
2023/05/20 07:32:13;;;;;;;15.50;10.50;;;12.80;99.90;;;;;;5005075;28;20696;-61
2023/05/20 07:34:38;;;;;;;19.60;11.40;;;12.80;99.90;;;;;;5007063;28;20185;-62
2023/05/20 07:37:04;;;;;;;15.83;11.10;;;12.80;99.90;;;;;;5006951;28;20183;-61
2023/05/20 07:39:30;;;;;;;14.10;10.57;;;12.90;99.90;;;;;;5000301;28;20322;-62
2023/05/20 07:41:56;;;;;;;16.43;10.90;;;12.90;99.90;;;;;;5004040;28;20979;-61
2023/05/20 07:44:22;;;;;;;14.77;11.30;;;12.90;99.90;;;;;;4998572;28;20200;-62
2023/05/20 07:46:48;;;;;;;17.63;10.80;;;13.00;99.90;;;;;;5003162;28;20188;-61
2023/05/20 07:49:13;;;;;;;14.57;11.20;;;13.00;99.90;;;;;;5006639;28;21355;-61
2023/05/20 07:51:39;;;;;;;14.70;10.87;;;13.00;99.90;;;;;;5004519;28;20208;-63
2023/05/20 07:54:05;;;;;;;15.23;10.77;;;13.00;99.90;;;;;;5002533;28;20188;-62
2023/05/20 07:56:32;;;;;;;15.33;9.63;;;13.00;99.90;;;;;;5009054;28;20185;-61
2023/05/20 07:58:58;;;;;;;16.20;9.97;;;13.00;99.90;;;;;;5007402;28;20427;-62
2023/05/20 08:01:25;;;;;;;13.53;10.53;;;13.10;99.90;;;;;;4998631;28;20458;-61
2023/05/20 08:03:51;;;;;;;14.40;10.77;;;13.00;99.90;;;;;;5004105;28;20427;-61
2023/05/20 08:06:19;;;;;;;13.40;10.73;;;13.00;99.90;;;;;;4998829;28;20443;-61
2023/05/20 08:08:45;;;;;;;14.07;10.07;;;13.00;99.90;;;;;;4997254;28;20511;-60
2023/05/20 08:11:11;;;;;;;16.43;10.07;;;13.10;99.90;;;;;;5002193;28;20589;-61
2023/05/20 08:13:37;;;;;;;14.77;10.20;;;13.10;99.90;;;;;;5001977;28;20570;-61
2023/05/20 08:16:03;;;;;;;14.80;10.13;;;13.10;99.90;;;;;;5002091;28;20176;-61
2023/05/20 08:18:29;;;;;;;17.27;11.00;;;13.20;99.90;;;;;;5003751;28;20184;-61
2023/05/20 08:20:55;;;;;;;16.70;11.00;;;13.20;99.90;;;;;;5002967;28;20451;-61
2023/05/20 08:23:20;;;;;;;14.17;10.10;;;13.20;99.90;;;;;;4997168;28;20176;-65
2023/05/20 08:25:47;;;;;;;15.17;11.83;;;13.20;99.90;;;;;;5001361;28;20207;-60
2023/05/20 08:28:13;;;;;;;16.93;11.83;;;13.20;99.90;;;;;;5000375;28;20208;-62
2023/05/20 08:30:38;;;;;;;13.60;10.23;;;13.30;99.90;;;;;;5001701;28;20510;-61
2023/05/20 08:33:04;;;;;;;18.30;10.93;;;13.30;99.90;;;;;;5002365;28;20451;-61
2023/05/20 08:35:30;;;;;;;19.03;10.80;;;13.40;99.90;;;;;;4993614;28;20313;-62
2023/05/20 08:37:55;;;;;;;12.33;9.33;;;13.40;99.90;;;;;;5001950;28;20775;-61
2023/05/20 08:40:21;;;;;;;15.57;9.50;;;13.40;99.90;;;;;;5006616;28;20176;-61
2023/05/20 08:42:51;;;;;;;16.20;10.80;;;13.40;99.90;;;;;;4996696;28;20263;-62
2023/05/20 08:45:19;;;;;;;13.93;9.70;;;13.50;98.90;;;;;;4998224;28;21003;-61
2023/05/20 08:47:45;;;;;;;14.97;10.00;;;13.50;97.70;;;;;;4996690;28;20439;-62
2023/05/20 08:50:12;;;;;;;16.90;11.10;;;13.60;96.50;;;;;;5003414;28;20427;-61
2023/05/20 08:52:45;;;;;;;16.00;10.37;;;13.60;95.50;;;;;;5005133;28;20589;-61
2023/05/20 08:55:16;;;;;;;16.87;12.13;;;13.60;94.80;;;;;;5002227;28;21200;-62
2023/05/20 08:57:44;;;;;;;15.07;11.50;;;13.60;94.10;;;;;;5005197;28;20458;-61
2023/05/20 09:00:12;;;;;;;16.30;10.77;;;13.70;95.10;;;;;;4999710;28;20440;-61
2023/05/20 09:02:41;;;;;;;18.20;12.10;;;13.70;95.90;;;;;;4994449;28;21071;-63
2023/05/20 09:05:09;;;;;;;19.73;12.43;;;13.80;96.90;;;;;;5004326;28;20463;-61
2023/05/20 09:07:35;;;;;;;16.83;11.47;;;13.80;97.80;;;;;;5002691;28;20439;-61
2023/05/20 09:10:00;;;;;;;16.27;11.40;;;13.80;98.90;;;;;;4996973;28;20876;-61
2023/05/20 09:12:26;;;;;;;16.40;11.63;;;13.80;98.60;;;;;;5003389;28;20219;-61
2023/05/20 09:14:52;;;;;;;17.43;11.73;;;13.70;98.50;;;;;;4997186;28;20192;-61
2023/05/20 09:17:17;;;;;;;18.20;12.07;;;13.70;98.10;;;;;;4997440;28;20272;-60
2023/05/20 09:19:43;;;;;;;19.30;11.63;;;13.70;98.80;;;;;;4997250;28;20182;-62
2023/05/20 09:22:09;;;;;;;21.83;12.37;;;13.60;99.30;;;;;;5003235;28;20231;-61
2023/05/20 09:24:34;;;;;;;16.83;11.30;;;13.60;99.90;;;;;;5004429;28;20668;-62
2023/05/20 09:27:00;;;;;;;19.03;12.10;;;13.60;99.90;;;;;;4993363;28;20264;-61
2023/05/20 09:29:26;;;;;;;18.47;13.27;;;13.60;99.90;;;;;;5001194;28;20265;-62
2023/05/20 09:31:52;;;;;;;18.80;12.30;;;13.60;99.90;;;;;;5003560;28;20203;-62
2023/05/20 09:34:19;;;;;;;16.50;12.60;;;13.60;99.90;;;;;;4998757;28;20192;-61
2023/05/20 09:36:49;;;;;;;16.33;11.50;;;13.60;99.90;;;;;;4997193;28;20440;-61
2023/05/20 09:39:17;;;;;;;16.53;11.07;;;13.70;99.90;;;;;;5002788;28;20959;-61
2023/05/20 09:41:48;;;;;;;14.23;10.47;;;13.70;99.90;;;;;;4994271;28;20521;-61
2023/05/20 09:44:15;;;;;;;13.43;9.93;;;13.80;99.90;;;;;;5001236;28;20475;-61
2023/05/20 09:46:41;;;;;;;16.30;10.70;;;13.90;98.00;;;;;;5001523;28;20518;-61
2023/05/20 09:49:08;;;;;;;13.17;10.53;;;14.00;95.00;;;;;;5000799;28;21089;-60
2023/05/20 09:51:34;;;;;;;15.83;11.30;;;14.10;92.90;;;;;;4996483;28;20447;-61
2023/05/20 09:54:02;;;;;;;12.47;10.47;;;14.20;92.20;;;;;;5002291;28;20424;-61
2023/05/20 09:56:29;;;;;;;19.20;11.00;;;14.40;91.10;;;;;;5003389;28;20438;-62
2023/05/20 09:58:58;;;;;;;13.93;9.57;;;14.60;90.20;;;;;;5001058;28;20522;-61
2023/05/20 10:01:24;;;;;;;12.60;9.20;;;14.90;87.90;;;;;;4999428;28;20488;-61
2023/05/20 10:03:51;;;;;;;14.00;9.13;;;15.30;84.10;;;;;;4997394;28;20501;-61
2023/05/20 10:06:36;;;;;;;11.00;8.70;;;15.50;81.30;;;;;;4997174;28;20169;-62
2023/05/20 10:09:08;;;;;;;11.53;9.10;;;15.90;79.30;;;;;;4997583;28;20439;-61
2023/05/20 10:11:37;;;;;;;12.17;9.13;;;16.10;75.20;;;;;;5001557;28;21203;-61
2023/05/20 10:14:33;;;;;;;11.57;9.13;;;16.40;74.10;;;;;;4997132;28;20485;-61
2023/05/20 10:17:25;;;;;;;16.13;9.57;;;16.50;72.90;;;;;;4997569;28;20909;-61
2023/05/20 10:19:57;;;;;;;10.77;8.20;;;16.70;73.30;;;;;;4988094;28;20441;-62
2023/05/20 10:22:27;;;;;;;11.07;9.27;;;16.80;72.40;;;;;;5000112;28;20458;-61
2023/05/20 10:24:59;;;;;;;16.57;8.90;;;16.90;70.90;;;;;;4999373;28;20466;-61
2023/05/20 10:27:25;;;;;;;10.77;8.70;;;16.90;70.50;;;;;;4998185;28;20436;-61
2023/05/20 10:29:50;;;;;;;10.00;8.70;;;17.10;70.00;;;;;;4999670;28;20817;-61
2023/05/20 10:32:33;;;;;;;13.13;7.93;;;17.20;70.20;;;;;;5004658;28;20451;-62
2023/05/20 10:35:00;;;;;;;11.00;8.43;;;17.20;69.00;;;;;;5003902;28;20210;-62
2023/05/20 10:37:27;;;;;;;8.30;7.40;;;17.20;69.00;;;;;;5005286;28;20423;-62
2023/05/20 10:40:06;;;;;;;8.93;7.97;;;17.20;69.00;;;;;;5003937;28;20424;-62
2023/05/20 10:42:32;;;;;;;10.37;8.60;;;17.30;69.30;;;;;;5005368;28;20545;-62
2023/05/20 10:44:57;;;;;;;10.40;8.40;;;17.40;69.30;;;;;;5001637;28;21067;-62
2023/05/20 10:47:23;;;;;;;9.20;8.17;;;17.60;69.70;;;;;;5005715;28;20177;-62
2023/05/20 10:49:49;;;;;;;10.50;8.00;;;17.90;69.60;;;;;;5004947;28;20180;-62
2023/05/20 10:52:16;;;;;;;12.17;7.80;;;18.20;68.50;;;;;;4998132;28;20592;-62
2023/05/20 10:54:55;;;;;;;10.60;7.10;;;18.60;67.40;;;;;;5003403;28;20545;-62
2023/05/20 10:57:21;;;;;;;10.47;7.47;;;18.90;66.40;;;;;;5003124;28;21135;-62
2023/05/20 10:59:48;;;;;;;8.90;7.63;;;19.00;63.60;;;;;;5002763;28;20447;-61
2023/05/20 11:02:15;;;;;;;8.27;7.47;;;19.10;62.80;;;;;;5003965;28;20205;-62
2023/05/20 11:04:45;;;;;;;9.80;7.50;;;19.20;62.20;;;;;;5010443;28;20545;-62
2023/05/20 11:07:12;;;;;;;9.40;6.80;;;19.40;63.20;;;;;;5009857;28;20459;-62
2023/05/20 11:09:38;;;;;;;10.40;7.77;;;19.60;62.50;;;;;;5006394;28;20459;-62
2023/05/20 11:12:04;;;;;;;8.60;6.70;;;19.80;62.10;;;;;;5004418;28;20451;-62
2023/05/20 11:14:30;;;;;;;11.90;7.93;;;19.90;60.50;;;;;;5005266;28;20962;-61
2023/05/20 11:16:58;;;;;;;9.50;7.87;;;19.80;60.30;;;;;;5007187;28;20489;-62
2023/05/20 11:19:24;;;;;;;9.97;7.40;;;19.70;59.80;;;;;;5003367;28;20676;-62
2023/05/20 11:21:50;;;;;;;9.30;7.80;;;19.80;60.70;;;;;;5008958;28;20451;-62
2023/05/20 11:24:24;;;;;;;9.83;7.20;;;20.00;61.80;;;;;;5004223;28;20478;-62
2023/05/20 11:26:51;;;;;;;9.10;8.00;;;20.00;60.70;;;;;;5006691;28;20946;-61
2023/05/20 11:29:18;;;;;;;7.83;6.97;;;20.00;60.00;;;;;;5004849;28;21549;-61
2023/05/20 11:31:45;;;;;;;9.30;7.30;;;19.80;59.80;;;;;;5002442;28;20546;-62
2023/05/20 11:34:11;;;;;;;7.87;6.40;;;19.60;60.70;;;;;;5007498;28;20454;-61
2023/05/20 11:36:43;;;;;;;9.60;7.40;;;19.50;60.90;;;;;;5000487;28;21124;-61
2023/05/20 11:39:13;;;;;;;7.00;6.00;;;19.70;62.00;;;;;;5004763;28;20177;-61
2023/05/20 11:41:41;;;;;;;9.20;6.57;;;20.00;60.80;;;;;;5007975;28;20828;-62
2023/05/20 11:44:11;;;;;;;8.87;7.40;;;20.30;60.50;;;;;;5004373;28;20459;-62
2023/05/20 11:46:44;;;;;;;6.93;6.23;;;20.50;59.60;;;;;;5006809;28;20558;-62
2023/05/20 11:49:12;;;;;;;7.30;6.60;;;20.60;58.80;;;;;;5001777;28;20454;-63
2023/05/20 11:51:38;;;;;;;7.63;6.83;;;20.60;58.00;;;;;;5007374;28;20469;-62
2023/05/20 11:54:06;;;;;;;8.50;7.60;;;20.50;57.10;;;;;;5003062;28;20439;-61
2023/05/20 11:56:40;;;;;;;8.03;7.23;;;20.40;57.40;;;;;;5000522;28;20181;-62
2023/05/20 11:59:07;;;;;;;7.63;6.47;;;20.20;57.80;;;;;;5008803;28;20423;-62
2023/05/20 12:01:36;;;;;;;8.03;7.13;;;20.10;58.10;;;;;;5004908;28;20459;-63
2023/05/20 12:04:04;;;;;;;8.90;7.00;;;19.90;58.20;;;;;;5004140;28;20454;-61
2023/05/20 12:06:30;;;;;;;8.33;7.37;;;19.80;58.80;;;;;;5000401;28;20435;-62
2023/05/20 12:08:55;;;;;;;10.33;8.33;;;19.70;59.20;;;;;;4999721;28;20428;-62
2023/05/20 12:11:21;;;;;;;10.00;6.60;;;19.60;59.70;;;;;;5008274;28;20816;-63
2023/05/20 12:13:47;;;;;;;25.03;7.87;;;19.40;59.50;;;;;;5000340;28;20177;-62
2023/05/20 12:16:12;;;;;;;8.50;7.57;;;19.30;59.60;;;;;;5002661;28;20276;-61
2023/05/20 12:18:38;;;;;;;9.50;7.90;;;19.30;60.30;;;;;;5006621;28;20654;-62
2023/05/20 12:21:04;;;;;;;8.53;6.93;;;19.20;60.20;;;;;;5005866;28;20549;-62
2023/05/20 12:23:32;;;;;;;10.33;7.83;;;19.20;60.00;;;;;;4994102;28;20594;-61
2023/05/20 12:25:58;;;;;;;8.37;7.20;;;19.30;60.20;;;;;;5001221;28;20205;-57
2023/05/20 12:28:24;;;;;;;8.37;7.57;;;19.50;60.40;;;;;;5006983;28;20436;-57
2023/05/20 12:30:50;;;;;;;8.37;7.53;;;19.70;60.10;;;;;;5005418;28;20196;-56
2023/05/20 12:33:15;;;;;;;8.27;7.40;;;19.90;60.50;;;;;;5008705;28;20169;-56
2023/05/20 12:35:42;;;;;;;9.90;7.03;;;20.10;59.80;;;;;;5005516;28;20184;-55